sensor_id;sensor_type;location;lat;lon;timestamp;temperature;humidity
18797;DHT22;9526;52.612;13.300;2023-03-13T00:01:30;6.20;99.90
18797;DHT22;9526;52.612;13.300;2023-03-13T00:03:56;6.20;99.90
18797;DHT22;9526;52.612;13.300;2023-03-13T00:06:20;6.10;99.90
18797;DHT22;9526;52.612;13.300;2023-03-13T00:08:43;6.10;99.90
18797;DHT22;9526;52.612;13.300;2023-03-13T00:11:08;6.10;99.90
18797;DHT22;9526;52.612;13.300;2023-03-13T00:13:34;6.20;99.90
18797;DHT22;9526;52.612;13.300;2023-03-13T00:16:01;6.20;99.90
18797;DHT22;9526;52.612;13.300;2023-03-13T00:18:25;6.20;99.90
18797;DHT22;9526;52.612;13.300;2023-03-13T00:20:57;6.20;99.90
18797;DHT22;9526;52.612;13.300;2023-03-13T00:23:21;6.20;99.90
18797;DHT22;9526;52.612;13.300;2023-03-13T00:25:44;6.20;99.90
18797;DHT22;9526;52.612;13.300;2023-03-13T00:28:08;6.30;99.90
18797;DHT22;9526;52.612;13.300;2023-03-13T00:30:32;6.30;99.90
18797;DHT22;9526;52.612;13.300;2023-03-13T00:32:55;6.30;99.90
18797;DHT22;9526;52.612;13.300;2023-03-13T00:35:19;6.30;99.90
18797;DHT22;9526;52.612;13.300;2023-03-13T00:37:44;6.40;99.90
18797;DHT22;9526;52.612;13.300;2023-03-13T00:40:09;6.40;99.90
18797;DHT22;9526;52.612;13.300;2023-03-13T00:42:33;6.40;99.90
18797;DHT22;9526;52.612;13.300;2023-03-13T00:44:57;6.40;99.90
18797;DHT22;9526;52.612;13.300;2023-03-13T00:47:21;6.40;99.90
18797;DHT22;9526;52.612;13.300;2023-03-13T00:49:44;6.50;99.90
18797;DHT22;9526;52.612;13.300;2023-03-13T00:52:08;6.50;99.90
18797;DHT22;9526;52.612;13.300;2023-03-13T00:54:33;6.50;99.90
18797;DHT22;9526;52.612;13.300;2023-03-13T00:56:56;6.60;99.90
18797;DHT22;9526;52.612;13.300;2023-03-13T00:59:20;6.60;99.90
18797;DHT22;9526;52.612;13.300;2023-03-13T01:01:44;6.60;99.90
18797;DHT22;9526;52.612;13.300;2023-03-13T01:04:10;6.70;99.90
18797;DHT22;9526;52.612;13.300;2023-03-13T01:06:36;6.70;99.90
18797;DHT22;9526;52.612;13.300;2023-03-13T01:09:03;6.70;99.90
18797;DHT22;9526;52.612;13.300;2023-03-13T01:11:31;6.80;99.90
18797;DHT22;9526;52.612;13.300;2023-03-13T01:13:57;6.80;99.90
18797;DHT22;9526;52.612;13.300;2023-03-13T01:16:22;6.90;99.90
18797;DHT22;9526;52.612;13.300;2023-03-13T01:18:48;6.90;99.90
18797;DHT22;9526;52.612;13.300;2023-03-13T01:21:14;6.90;99.90
18797;DHT22;9526;52.612;13.300;2023-03-13T01:23:40;7.00;99.90
18797;DHT22;9526;52.612;13.300;2023-03-13T01:26:05;7.00;99.90
18797;DHT22;9526;52.612;13.300;2023-03-13T01:28:30;7.00;99.90
18797;DHT22;9526;52.612;13.300;2023-03-13T01:30:54;7.00;99.90
18797;DHT22;9526;52.612;13.300;2023-03-13T01:33:18;7.10;99.90
18797;DHT22;9526;52.612;13.300;2023-03-13T01:35:42;7.10;99.90
18797;DHT22;9526;52.612;13.300;2023-03-13T01:38:07;7.10;99.90
18797;DHT22;9526;52.612;13.300;2023-03-13T01:40:31;7.10;99.90
18797;DHT22;9526;52.612;13.300;2023-03-13T01:43:14;7.10;99.90
18797;DHT22;9526;52.612;13.300;2023-03-13T01:45:57;7.20;99.90
18797;DHT22;9526;52.612;13.300;2023-03-13T01:48:37;7.20;99.90
18797;DHT22;9526;52.612;13.300;2023-03-13T01:51:07;7.20;99.90
18797;DHT22;9526;52.612;13.300;2023-03-13T01:53:34;7.20;99.90
18797;DHT22;9526;52.612;13.300;2023-03-13T01:56:03;7.20;99.90
18797;DHT22;9526;52.612;13.300;2023-03-13T01:58:29;7.20;99.90
18797;DHT22;9526;52.612;13.300;2023-03-13T02:00:54;7.20;99.90
18797;DHT22;9526;52.612;13.300;2023-03-13T02:03:19;7.30;99.90
18797;DHT22;9526;52.612;13.300;2023-03-13T02:05:44;7.30;99.90
18797;DHT22;9526;52.612;13.300;2023-03-13T02:08:12;7.30;99.90
18797;DHT22;9526;52.612;13.300;2023-03-13T02:10:46;7.30;99.90
18797;DHT22;9526;52.612;13.300;2023-03-13T02:13:14;7.30;99.90
18797;DHT22;9526;52.612;13.300;2023-03-13T02:15:40;7.40;99.90
18797;DHT22;9526;52.612;13.300;2023-03-13T02:18:05;7.40;99.90
18797;DHT22;9526;52.612;13.300;2023-03-13T02:20:29;7.40;99.90
18797;DHT22;9526;52.612;13.300;2023-03-13T02:22:57;7.40;99.90
18797;DHT22;9526;52.612;13.300;2023-03-13T02:25:34;7.40;99.90
18797;DHT22;9526;52.612;13.300;2023-03-13T02:28:05;7.40;99.90
18797;DHT22;9526;52.612;13.300;2023-03-13T02:30:32;7.40;99.90
18797;DHT22;9526;52.612;13.300;2023-03-13T02:32:57;7.40;99.90
18797;DHT22;9526;52.612;13.300;2023-03-13T02:35:23;7.40;99.90
18797;DHT22;9526;52.612;13.300;2023-03-13T02:37:50;7.40;99.90
18797;DHT22;9526;52.612;13.300;2023-03-13T02:40:22;7.40;99.90
18797;DHT22;9526;52.612;13.300;2023-03-13T02:42:51;7.40;99.90
18797;DHT22;9526;52.612;13.300;2023-03-13T02:45:17;7.40;99.90
18797;DHT22;9526;52.612;13.300;2023-03-13T02:47:41;7.40;99.90
18797;DHT22;9526;52.612;13.300;2023-03-13T02:50:06;7.50;99.90
18797;DHT22;9526;52.612;13.300;2023-03-13T02:52:33;7.50;99.90
18797;DHT22;9526;52.612;13.300;2023-03-13T02:55:05;7.50;99.90
18797;DHT22;9526;52.612;13.300;2023-03-13T02:57:30;7.50;99.90
18797;DHT22;9526;52.612;13.300;2023-03-13T02:59:56;7.50;99.90
18797;DHT22;9526;52.612;13.300;2023-03-13T03:02:20;7.60;99.90
18797;DHT22;9526;52.612;13.300;2023-03-13T03:04:44;7.50;99.90
18797;DHT22;9526;52.612;13.300;2023-03-13T03:07:07;7.50;99.90
18797;DHT22;9526;52.612;13.300;2023-03-13T03:09:32;7.50;99.90
18797;DHT22;9526;52.612;13.300;2023-03-13T03:12:00;7.60;99.90
18797;DHT22;9526;52.612;13.300;2023-03-13T03:14:24;7.60;99.90
18797;DHT22;9526;52.612;13.300;2023-03-13T03:16:49;7.60;99.90
18797;DHT22;9526;52.612;13.300;2023-03-13T03:19:13;7.60;99.90
18797;DHT22;9526;52.612;13.300;2023-03-13T03:21:37;7.60;99.90
18797;DHT22;9526;52.612;13.300;2023-03-13T03:24:01;7.60;99.90
18797;DHT22;9526;52.612;13.300;2023-03-13T03:26:25;7.70;99.90
18797;DHT22;9526;52.612;13.300;2023-03-13T03:28:49;7.70;99.90
18797;DHT22;9526;52.612;13.300;2023-03-13T03:31:14;7.70;99.90
18797;DHT22;9526;52.612;13.300;2023-03-13T03:33:40;7.70;99.90
18797;DHT22;9526;52.612;13.300;2023-03-13T03:36:08;7.70;99.90
18797;DHT22;9526;52.612;13.300;2023-03-13T03:38:33;7.70;99.90
18797;DHT22;9526;52.612;13.300;2023-03-13T03:40:56;7.70;99.90
18797;DHT22;9526;52.612;13.300;2023-03-13T03:43:20;7.70;99.90
18797;DHT22;9526;52.612;13.300;2023-03-13T03:45:44;7.60;99.90
18797;DHT22;9526;52.612;13.300;2023-03-13T03:48:08;7.60;99.90
18797;DHT22;9526;52.612;13.300;2023-03-13T03:50:33;7.60;99.90
18797;DHT22;9526;52.612;13.300;2023-03-13T03:52:58;7.70;99.90
18797;DHT22;9526;52.612;13.300;2023-03-13T03:55:21;7.70;99.90
18797;DHT22;9526;52.612;13.300;2023-03-13T03:57:45;7.70;99.90
18797;DHT22;9526;52.612;13.300;2023-03-13T04:00:17;7.70;99.90
18797;DHT22;9526;52.612;13.300;2023-03-13T04:02:46;7.60;99.90
18797;DHT22;9526;52.612;13.300;2023-03-13T04:05:10;7.60;99.90
18797;DHT22;9526;52.612;13.300;2023-03-13T04:07:36;7.60;99.90
18797;DHT22;9526;52.612;13.300;2023-03-13T04:10:00;7.60;99.90
18797;DHT22;9526;52.612;13.300;2023-03-13T04:12:30;7.70;99.90
18797;DHT22;9526;52.612;13.300;2023-03-13T04:14:54;7.60;99.90
18797;DHT22;9526;52.612;13.300;2023-03-13T04:17:17;7.70;99.90
18797;DHT22;9526;52.612;13.300;2023-03-13T04:19:41;7.60;99.90
18797;DHT22;9526;52.612;13.300;2023-03-13T04:22:04;7.70;99.90
18797;DHT22;9526;52.612;13.300;2023-03-13T04:24:30;7.70;99.90
18797;DHT22;9526;52.612;13.300;2023-03-13T04:26:53;7.70;99.90
18797;DHT22;9526;52.612;13.300;2023-03-13T04:29:17;7.70;99.90
18797;DHT22;9526;52.612;13.300;2023-03-13T04:31:53;7.70;99.90
18797;DHT22;9526;52.612;13.300;2023-03-13T04:34:33;7.70;99.90
18797;DHT22;9526;52.612;13.300;2023-03-13T04:37:29;7.70;99.90
18797;DHT22;9526;52.612;13.300;2023-03-13T04:40:14;7.70;99.90
18797;DHT22;9526;52.612;13.300;2023-03-13T04:43:00;7.70;99.90
18797;DHT22;9526;52.612;13.300;2023-03-13T04:45:42;7.70;99.90
18797;DHT22;9526;52.612;13.300;2023-03-13T04:48:24;7.70;99.90
18797;DHT22;9526;52.612;13.300;2023-03-13T04:50:59;7.70;99.90
18797;DHT22;9526;52.612;13.300;2023-03-13T04:53:39;7.70;99.90
18797;DHT22;9526;52.612;13.300;2023-03-13T04:56:36;7.70;99.90
18797;DHT22;9526;52.612;13.300;2023-03-13T04:59:37;7.70;99.90
18797;DHT22;9526;52.612;13.300;2023-03-13T05:02:13;7.70;99.90
18797;DHT22;9526;52.612;13.300;2023-03-13T05:04:52;7.70;99.90
18797;DHT22;9526;52.612;13.300;2023-03-13T05:07:35;7.70;99.90
18797;DHT22;9526;52.612;13.300;2023-03-13T05:10:06;7.70;99.90
18797;DHT22;9526;52.612;13.300;2023-03-13T05:12:50;7.70;99.90
18797;DHT22;9526;52.612;13.300;2023-03-13T05:15:40;7.70;99.90
18797;DHT22;9526;52.612;13.300;2023-03-13T05:18:22;7.70;99.90
18797;DHT22;9526;52.612;13.300;2023-03-13T05:21:02;7.80;99.90
18797;DHT22;9526;52.612;13.300;2023-03-13T05:23:45;7.80;99.90
18797;DHT22;9526;52.612;13.300;2023-03-13T05:26:21;7.80;99.90
18797;DHT22;9526;52.612;13.300;2023-03-13T05:29:09;7.80;99.90
18797;DHT22;9526;52.612;13.300;2023-03-13T05:31:49;7.80;99.90
18797;DHT22;9526;52.612;13.300;2023-03-13T05:34:31;7.80;99.90
18797;DHT22;9526;52.612;13.300;2023-03-13T05:37:20;7.90;99.90
18797;DHT22;9526;52.612;13.300;2023-03-13T05:39:52;7.90;99.90
18797;DHT22;9526;52.612;13.300;2023-03-13T05:42:19;7.90;99.90
18797;DHT22;9526;52.612;13.300;2023-03-13T05:44:55;7.90;99.90
18797;DHT22;9526;52.612;13.300;2023-03-13T05:47:51;7.90;99.90
18797;DHT22;9526;52.612;13.300;2023-03-13T05:50:53;8.00;99.90
18797;DHT22;9526;52.612;13.300;2023-03-13T05:53:36;8.00;99.90
18797;DHT22;9526;52.612;13.300;2023-03-13T05:56:32;8.00;99.90
18797;DHT22;9526;52.612;13.300;2023-03-13T05:59:05;8.00;99.90
18797;DHT22;9526;52.612;13.300;2023-03-13T06:01:51;8.00;99.90
18797;DHT22;9526;52.612;13.300;2023-03-13T06:04:22;8.10;99.90
18797;DHT22;9526;52.612;13.300;2023-03-13T06:06:46;8.10;99.90
18797;DHT22;9526;52.612;13.300;2023-03-13T06:09:11;8.10;99.90
18797;DHT22;9526;52.612;13.300;2023-03-13T06:11:35;8.10;99.90
18797;DHT22;9526;52.612;13.300;2023-03-13T06:13:59;8.10;99.90
18797;DHT22;9526;52.612;13.300;2023-03-13T06:16:29;8.10;99.90
18797;DHT22;9526;52.612;13.300;2023-03-13T06:19:09;8.10;99.90
18797;DHT22;9526;52.612;13.300;2023-03-13T06:21:33;8.20;99.90
18797;DHT22;9526;52.612;13.300;2023-03-13T06:23:56;8.20;99.90
18797;DHT22;9526;52.612;13.300;2023-03-13T06:26:20;8.20;99.90
18797;DHT22;9526;52.612;13.300;2023-03-13T06:28:45;8.20;99.90
18797;DHT22;9526;52.612;13.300;2023-03-13T06:31:09;8.20;99.90
18797;DHT22;9526;52.612;13.300;2023-03-13T06:33:33;8.20;99.90
18797;DHT22;9526;52.612;13.300;2023-03-13T06:36:01;8.20;99.90
18797;DHT22;9526;52.612;13.300;2023-03-13T06:38:25;8.10;99.90
18797;DHT22;9526;52.612;13.300;2023-03-13T06:40:49;8.10;99.90
18797;DHT22;9526;52.612;13.300;2023-03-13T06:43:12;8.20;99.90
18797;DHT22;9526;52.612;13.300;2023-03-13T06:45:36;8.20;99.90
18797;DHT22;9526;52.612;13.300;2023-03-13T06:48:00;8.20;99.90
18797;DHT22;9526;52.612;13.300;2023-03-13T06:50:23;8.20;99.90
18797;DHT22;9526;52.612;13.300;2023-03-13T06:52:48;8.20;99.90
18797;DHT22;9526;52.612;13.300;2023-03-13T06:55:12;8.30;99.90
18797;DHT22;9526;52.612;13.300;2023-03-13T06:57:35;8.30;99.90
18797;DHT22;9526;52.612;13.300;2023-03-13T06:59:59;8.30;99.90
18797;DHT22;9526;52.612;13.300;2023-03-13T07:02:23;8.30;99.90
18797;DHT22;9526;52.612;13.300;2023-03-13T07:04:46;8.40;99.90
18797;DHT22;9526;52.612;13.300;2023-03-13T07:07:10;8.40;99.90
18797;DHT22;9526;52.612;13.300;2023-03-13T07:09:53;8.30;99.90
18797;DHT22;9526;52.612;13.300;2023-03-13T07:12:16;8.40;99.90
18797;DHT22;9526;52.612;13.300;2023-03-13T07:14:40;8.40;99.90
18797;DHT22;9526;52.612;13.300;2023-03-13T07:17:04;8.40;99.90
18797;DHT22;9526;52.612;13.300;2023-03-13T07:19:27;8.40;99.90
18797;DHT22;9526;52.612;13.300;2023-03-13T07:21:51;8.40;99.90
18797;DHT22;9526;52.612;13.300;2023-03-13T07:24:15;8.40;99.90
18797;DHT22;9526;52.612;13.300;2023-03-13T07:26:40;8.40;99.90
18797;DHT22;9526;52.612;13.300;2023-03-13T07:29:24;8.40;99.90
18797;DHT22;9526;52.612;13.300;2023-03-13T07:31:47;8.50;99.90
18797;DHT22;9526;52.612;13.300;2023-03-13T07:34:11;8.50;99.90
18797;DHT22;9526;52.612;13.300;2023-03-13T07:36:35;8.50;99.90
18797;DHT22;9526;52.612;13.300;2023-03-13T07:38:58;8.50;99.90
18797;DHT22;9526;52.612;13.300;2023-03-13T07:41:22;8.50;99.90
18797;DHT22;9526;52.612;13.300;2023-03-13T07:43:47;8.60;99.90
18797;DHT22;9526;52.612;13.300;2023-03-13T07:46:12;8.60;99.90
18797;DHT22;9526;52.612;13.300;2023-03-13T07:48:38;8.60;99.90
18797;DHT22;9526;52.612;13.300;2023-03-13T07:51:02;8.70;99.90
18797;DHT22;9526;52.612;13.300;2023-03-13T07:53:27;8.70;99.90
18797;DHT22;9526;52.612;13.300;2023-03-13T07:55:55;8.80;99.90
18797;DHT22;9526;52.612;13.300;2023-03-13T07:58:20;8.90;99.90
18797;DHT22;9526;52.612;13.300;2023-03-13T08:00:46;8.80;99.90
18797;DHT22;9526;52.612;13.300;2023-03-13T08:03:10;8.90;99.90
18797;DHT22;9526;52.612;13.300;2023-03-13T08:05:33;8.90;99.90
18797;DHT22;9526;52.612;13.300;2023-03-13T08:07:57;8.90;99.90
18797;DHT22;9526;52.612;13.300;2023-03-13T08:10:21;9.00;99.90
18797;DHT22;9526;52.612;13.300;2023-03-13T08:12:44;8.90;99.90
18797;DHT22;9526;52.612;13.300;2023-03-13T08:15:08;8.90;99.90
18797;DHT22;9526;52.612;13.300;2023-03-13T08:17:33;8.90;99.90
18797;DHT22;9526;52.612;13.300;2023-03-13T08:19:57;9.00;99.90
18797;DHT22;9526;52.612;13.300;2023-03-13T08:22:21;9.00;99.90
18797;DHT22;9526;52.612;13.300;2023-03-13T08:24:44;9.00;99.90
18797;DHT22;9526;52.612;13.300;2023-03-13T08:27:08;9.00;99.90
18797;DHT22;9526;52.612;13.300;2023-03-13T08:29:31;9.00;99.90
18797;DHT22;9526;52.612;13.300;2023-03-13T08:31:55;9.10;99.90
18797;DHT22;9526;52.612;13.300;2023-03-13T08:34:20;9.00;99.90
18797;DHT22;9526;52.612;13.300;2023-03-13T08:36:43;9.10;99.90
18797;DHT22;9526;52.612;13.300;2023-03-13T08:39:10;9.00;99.90
18797;DHT22;9526;52.612;13.300;2023-03-13T08:41:35;9.10;99.90
18797;DHT22;9526;52.612;13.300;2023-03-13T08:44:02;9.10;99.90
18797;DHT22;9526;52.612;13.300;2023-03-13T08:46:28;9.10;99.90
18797;DHT22;9526;52.612;13.300;2023-03-13T08:48:53;9.10;99.90
18797;DHT22;9526;52.612;13.300;2023-03-13T08:51:20;9.20;99.90
18797;DHT22;9526;52.612;13.300;2023-03-13T08:53:45;9.20;99.90
18797;DHT22;9526;52.612;13.300;2023-03-13T08:56:10;9.20;99.90
18797;DHT22;9526;52.612;13.300;2023-03-13T08:58:35;9.20;99.90
18797;DHT22;9526;52.612;13.300;2023-03-13T09:01:01;9.20;99.90
18797;DHT22;9526;52.612;13.300;2023-03-13T09:03:25;9.30;99.90
18797;DHT22;9526;52.612;13.300;2023-03-13T09:05:49;9.30;99.90
18797;DHT22;9526;52.612;13.300;2023-03-13T09:08:18;9.40;99.90
18797;DHT22;9526;52.612;13.300;2023-03-13T09:10:42;9.40;99.90
18797;DHT22;9526;52.612;13.300;2023-03-13T09:13:05;9.50;99.90
18797;DHT22;9526;52.612;13.300;2023-03-13T09:15:29;9.50;99.90
18797;DHT22;9526;52.612;13.300;2023-03-13T09:17:53;9.60;99.90
18797;DHT22;9526;52.612;13.300;2023-03-13T09:20:17;9.60;99.90
18797;DHT22;9526;52.612;13.300;2023-03-13T09:22:40;9.60;99.90
18797;DHT22;9526;52.612;13.300;2023-03-13T09:25:06;9.60;99.90
18797;DHT22;9526;52.612;13.300;2023-03-13T09:27:30;9.70;99.90
18797;DHT22;9526;52.612;13.300;2023-03-13T09:29:54;9.70;99.90
18797;DHT22;9526;52.612;13.300;2023-03-13T09:32:17;9.70;99.90
18797;DHT22;9526;52.612;13.300;2023-03-13T09:34:41;9.70;99.90
18797;DHT22;9526;52.612;13.300;2023-03-13T09:37:05;9.70;99.90
18797;DHT22;9526;52.612;13.300;2023-03-13T09:39:29;9.80;99.90
18797;DHT22;9526;52.612;13.300;2023-03-13T09:42:01;9.70;99.90
18797;DHT22;9526;52.612;13.300;2023-03-13T09:44:34;9.80;99.90
18797;DHT22;9526;52.612;13.300;2023-03-13T09:47:03;9.80;99.90
18797;DHT22;9526;52.612;13.300;2023-03-13T09:49:35;9.80;99.90
18797;DHT22;9526;52.612;13.300;2023-03-13T09:52:08;9.80;99.90
18797;DHT22;9526;52.612;13.300;2023-03-13T09:54:38;9.80;99.90
18797;DHT22;9526;52.612;13.300;2023-03-13T09:57:12;9.80;99.90
18797;DHT22;9526;52.612;13.300;2023-03-13T09:59:43;9.90;99.90
18797;DHT22;9526;52.612;13.300;2023-03-13T10:02:18;9.90;99.90
18797;DHT22;9526;52.612;13.300;2023-03-13T10:04:49;9.90;99.90
18797;DHT22;9526;52.612;13.300;2023-03-13T10:07:14;9.90;99.90
18797;DHT22;9526;52.612;13.300;2023-03-13T10:09:38;10.00;99.90
18797;DHT22;9526;52.612;13.300;2023-03-13T10:12:09;10.00;99.90
18797;DHT22;9526;52.612;13.300;2023-03-13T10:14:42;10.10;99.90
18797;DHT22;9526;52.612;13.300;2023-03-13T10:17:22;10.10;99.90
18797;DHT22;9526;52.612;13.300;2023-03-13T10:19:56;10.20;99.90
18797;DHT22;9526;52.612;13.300;2023-03-13T10:22:25;10.20;99.90
18797;DHT22;9526;52.612;13.300;2023-03-13T10:24:55;10.30;99.90
18797;DHT22;9526;52.612;13.300;2023-03-13T10:27:22;10.30;99.90
18797;DHT22;9526;52.612;13.300;2023-03-13T10:29:46;10.50;99.90
18797;DHT22;9526;52.612;13.300;2023-03-13T10:32:12;10.50;99.90
18797;DHT22;9526;52.612;13.300;2023-03-13T10:34:48;10.60;99.90
18797;DHT22;9526;52.612;13.300;2023-03-13T10:37:16;10.70;99.90
18797;DHT22;9526;52.612;13.300;2023-03-13T10:39:43;10.70;99.90
18797;DHT22;9526;52.612;13.300;2023-03-13T10:42:16;10.80;99.90
18797;DHT22;9526;52.612;13.300;2023-03-13T10:44:44;11.00;99.90
18797;DHT22;9526;52.612;13.300;2023-03-13T10:47:11;11.10;99.90
18797;DHT22;9526;52.612;13.300;2023-03-13T10:49:46;11.30;99.90
18797;DHT22;9526;52.612;13.300;2023-03-13T10:52:28;11.40;99.90
18797;DHT22;9526;52.612;13.300;2023-03-13T10:54:59;11.40;99.90
18797;DHT22;9526;52.612;13.300;2023-03-13T10:57:28;11.50;99.90
18797;DHT22;9526;52.612;13.300;2023-03-13T10:59:55;11.60;99.90
18797;DHT22;9526;52.612;13.300;2023-03-13T11:02:22;11.70;99.90
18797;DHT22;9526;52.612;13.300;2023-03-13T11:04:47;11.80;99.90
18797;DHT22;9526;52.612;13.300;2023-03-13T11:07:20;12.10;99.90
18797;DHT22;9526;52.612;13.300;2023-03-13T11:09:57;12.30;99.90
18797;DHT22;9526;52.612;13.300;2023-03-13T11:12:21;12.40;99.90
18797;DHT22;9526;52.612;13.300;2023-03-13T11:14:45;12.60;99.90
18797;DHT22;9526;52.612;13.300;2023-03-13T11:17:14;12.70;99.90
18797;DHT22;9526;52.612;13.300;2023-03-13T11:19:59;12.80;99.90
18797;DHT22;9526;52.612;13.300;2023-03-13T11:22:33;12.80;99.90
18797;DHT22;9526;52.612;13.300;2023-03-13T11:25:08;12.90;99.90
18797;DHT22;9526;52.612;13.300;2023-03-13T11:27:45;12.90;99.90
18797;DHT22;9526;52.612;13.300;2023-03-13T11:30:20;12.90;99.90
18797;DHT22;9526;52.612;13.300;2023-03-13T11:33:04;12.80;99.90
18797;DHT22;9526;52.612;13.300;2023-03-13T11:35:38;12.90;99.90
18797;DHT22;9526;52.612;13.300;2023-03-13T11:38:06;12.90;99.90
18797;DHT22;9526;52.612;13.300;2023-03-13T11:40:36;12.90;99.90
18797;DHT22;9526;52.612;13.300;2023-03-13T11:43:15;13.00;99.90
18797;DHT22;9526;52.612;13.300;2023-03-13T11:46:02;12.90;99.90
18797;DHT22;9526;52.612;13.300;2023-03-13T11:49:11;13.00;99.90
18797;DHT22;9526;52.612;13.300;2023-03-13T11:51:50;12.90;99.90
18797;DHT22;9526;52.612;13.300;2023-03-13T11:57:24;13.10;99.90
18797;DHT22;9526;52.612;13.300;2023-03-13T12:00:02;13.10;99.90
18797;DHT22;9526;52.612;13.300;2023-03-13T12:02:39;13.30;99.90
18797;DHT22;9526;52.612;13.300;2023-03-13T12:05:09;13.30;99.90
18797;DHT22;9526;52.612;13.300;2023-03-13T12:07:40;13.40;99.90
18797;DHT22;9526;52.612;13.300;2023-03-13T12:10:09;13.40;99.90
18797;DHT22;9526;52.612;13.300;2023-03-13T12:12:38;13.60;99.90
18797;DHT22;9526;52.612;13.300;2023-03-13T12:15:16;13.70;99.90
18797;DHT22;9526;52.612;13.300;2023-03-13T12:17:48;13.80;99.90
18797;DHT22;9526;52.612;13.300;2023-03-13T12:20:21;13.80;99.90
18797;DHT22;9526;52.612;13.300;2023-03-13T12:22:54;13.80;99.90
18797;DHT22;9526;52.612;13.300;2023-03-13T12:25:23;13.90;99.90
18797;DHT22;9526;52.612;13.300;2023-03-13T12:27:51;13.90;99.90
18797;DHT22;9526;52.612;13.300;2023-03-13T12:30:26;14.00;99.90
18797;DHT22;9526;52.612;13.300;2023-03-13T12:33:01;14.00;99.90
18797;DHT22;9526;52.612;13.300;2023-03-13T12:35:30;14.00;99.90
18797;DHT22;9526;52.612;13.300;2023-03-13T12:38:01;14.10;99.90
18797;DHT22;9526;52.612;13.300;2023-03-13T12:40:32;14.10;99.90
18797;DHT22;9526;52.612;13.300;2023-03-13T12:43:03;14.20;99.90
18797;DHT22;9526;52.612;13.300;2023-03-13T12:45:35;14.30;99.90
18797;DHT22;9526;52.612;13.300;2023-03-13T12:48:20;14.40;99.90
18797;DHT22;9526;52.612;13.300;2023-03-13T12:51:02;14.50;99.90
18797;DHT22;9526;52.612;13.300;2023-03-13T12:53:55;14.60;99.90
18797;DHT22;9526;52.612;13.300;2023-03-13T12:57:04;14.70;99.90
18797;DHT22;9526;52.612;13.300;2023-03-13T12:59:38;14.90;99.90
18797;DHT22;9526;52.612;13.300;2023-03-13T13:02:14;15.10;99.90
18797;DHT22;9526;52.612;13.300;2023-03-13T13:04:43;15.20;99.90
18797;DHT22;9526;52.612;13.300;2023-03-13T13:07:20;15.30;99.90
18797;DHT22;9526;52.612;13.300;2023-03-13T13:10:00;15.40;99.90
18797;DHT22;9526;52.612;13.300;2023-03-13T13:12:26;15.50;99.90
18797;DHT22;9526;52.612;13.300;2023-03-13T13:15:14;15.60;99.90
18797;DHT22;9526;52.612;13.300;2023-03-13T13:17:57;15.60;99.90
18797;DHT22;9526;52.612;13.300;2023-03-13T13:20:41;15.70;99.90
18797;DHT22;9526;52.612;13.300;2023-03-13T13:23:24;15.80;99.90
18797;DHT22;9526;52.612;13.300;2023-03-13T13:32:17;16.00;99.90
18797;DHT22;9526;52.612;13.300;2023-03-13T13:34:58;16.00;99.90
18797;DHT22;9526;52.612;13.300;2023-03-13T13:37:25;16.00;99.90
18797;DHT22;9526;52.612;13.300;2023-03-13T13:39:53;16.00;99.90
18797;DHT22;9526;52.612;13.300;2023-03-13T13:42:52;16.10;99.90
18797;DHT22;9526;52.612;13.300;2023-03-13T13:45:25;16.20;99.90
18797;DHT22;9526;52.612;13.300;2023-03-13T13:51:22;16.30;99.90
18797;DHT22;9526;52.612;13.300;2023-03-13T13:53:48;16.30;99.90
18797;DHT22;9526;52.612;13.300;2023-03-13T13:56:35;16.40;99.90
18797;DHT22;9526;52.612;13.300;2023-03-13T13:59:05;16.40;99.90
18797;DHT22;9526;52.612;13.300;2023-03-13T14:01:47;16.30;99.90
18797;DHT22;9526;52.612;13.300;2023-03-13T14:04:16;16.30;99.90
18797;DHT22;9526;52.612;13.300;2023-03-13T14:06:47;16.30;99.90
18797;DHT22;9526;52.612;13.300;2023-03-13T14:09:18;16.30;99.90
18797;DHT22;9526;52.612;13.300;2023-03-13T14:11:46;16.30;99.90
18797;DHT22;9526;52.612;13.300;2023-03-13T14:14:14;16.30;99.90
18797;DHT22;9526;52.612;13.300;2023-03-13T14:16:39;16.40;99.90
18797;DHT22;9526;52.612;13.300;2023-03-13T14:19:20;16.50;99.90
18797;DHT22;9526;52.612;13.300;2023-03-13T14:21:45;16.60;99.90
18797;DHT22;9526;52.612;13.300;2023-03-13T14:24:12;16.60;99.90
18797;DHT22;9526;52.612;13.300;2023-03-13T14:26:42;16.70;99.90
18797;DHT22;9526;52.612;13.300;2023-03-13T14:29:06;16.60;99.90
18797;DHT22;9526;52.612;13.300;2023-03-13T14:31:31;16.70;99.90
18797;DHT22;9526;52.612;13.300;2023-03-13T14:34:00;16.70;99.90
18797;DHT22;9526;52.612;13.300;2023-03-13T14:36:27;16.70;99.90
18797;DHT22;9526;52.612;13.300;2023-03-13T14:38:54;16.50;99.90
18797;DHT22;9526;52.612;13.300;2023-03-13T14:41:29;16.60;99.90
18797;DHT22;9526;52.612;13.300;2023-03-13T14:44:01;16.70;99.90
18797;DHT22;9526;52.612;13.300;2023-03-13T14:46:29;16.70;99.90
18797;DHT22;9526;52.612;13.300;2023-03-13T14:48:55;16.60;99.90
18797;DHT22;9526;52.612;13.300;2023-03-13T14:51:21;16.60;99.90
18797;DHT22;9526;52.612;13.300;2023-03-13T14:53:55;16.60;99.90
18797;DHT22;9526;52.612;13.300;2023-03-13T14:56:20;16.50;99.90
18797;DHT22;9526;52.612;13.300;2023-03-13T14:58:44;16.40;99.90
18797;DHT22;9526;52.612;13.300;2023-03-13T15:01:27;16.40;99.90
18797;DHT22;9526;52.612;13.300;2023-03-13T15:03:51;16.50;99.90
18797;DHT22;9526;52.612;13.300;2023-03-13T15:06:17;16.40;99.90
18797;DHT22;9526;52.612;13.300;2023-03-13T15:08:43;16.40;99.90
18797;DHT22;9526;52.612;13.300;2023-03-13T15:11:19;16.30;99.90
18797;DHT22;9526;52.612;13.300;2023-03-13T15:13:44;16.30;99.90
18797;DHT22;9526;52.612;13.300;2023-03-13T15:16:13;16.30;99.90
18797;DHT22;9526;52.612;13.300;2023-03-13T15:18:37;16.20;99.90
18797;DHT22;9526;52.612;13.300;2023-03-13T15:21:20;16.20;99.90
18797;DHT22;9526;52.612;13.300;2023-03-13T15:23:48;16.20;99.90
18797;DHT22;9526;52.612;13.300;2023-03-13T15:26:13;16.20;99.90
18797;DHT22;9526;52.612;13.300;2023-03-13T15:28:38;16.20;99.90
18797;DHT22;9526;52.612;13.300;2023-03-13T15:31:01;16.20;99.90
18797;DHT22;9526;52.612;13.300;2023-03-13T15:33:27;16.10;99.90
18797;DHT22;9526;52.612;13.300;2023-03-13T15:35:51;16.10;99.90
18797;DHT22;9526;52.612;13.300;2023-03-13T15:38:16;16.00;99.90
18797;DHT22;9526;52.612;13.300;2023-03-13T15:40:41;15.90;99.90
18797;DHT22;9526;52.612;13.300;2023-03-13T15:43:05;15.90;99.90
18797;DHT22;9526;52.612;13.300;2023-03-13T15:45:30;15.80;99.90
18797;DHT22;9526;52.612;13.300;2023-03-13T15:47:54;15.80;99.90
18797;DHT22;9526;52.612;13.300;2023-03-13T15:50:20;15.70;99.90
18797;DHT22;9526;52.612;13.300;2023-03-13T15:52:47;15.70;99.90
18797;DHT22;9526;52.612;13.300;2023-03-13T15:55:11;15.70;99.90
18797;DHT22;9526;52.612;13.300;2023-03-13T15:57:38;15.60;99.90
18797;DHT22;9526;52.612;13.300;2023-03-13T16:00:09;15.60;99.90
18797;DHT22;9526;52.612;13.300;2023-03-13T16:02:38;15.60;99.90
18797;DHT22;9526;52.612;13.300;2023-03-13T16:05:02;15.50;99.90
18797;DHT22;9526;52.612;13.300;2023-03-13T16:07:26;15.50;99.90